Time;durP1;ratioP1;P1;durP2;ratioP2;P2;SDS_P1;SDS_P2;PMS_P1;PMS_P2;Temp;Humidity;BMP_temperature;BMP_pressure;BME280_temperature;BME280_humidity;BME280_pressure;Samples;Min_cycle;Max_cycle;Signal;HPM_P1;HPM_P2
2022/01/11 00:01:55;;;;;;;;;;;20.20;35.80;;;;;;482612;246;1336;-44
2022/01/11 00:03:56;;;;;;;;;;;20.30;35.80;;;;;;482201;246;1182;-44
2022/01/11 00:06:01;;;;;;;;;;;20.30;35.70;;;;;;482631;246;1142;-44
2022/01/11 00:07:59;;;;;;;;;;;20.30;35.80;;;;;;482017;247;2249;-44
2022/01/11 00:10:01;;;;;;;;;;;20.30;35.80;;;;;;482435;246;1006;-44
2022/01/11 00:12:01;;;;;;;;;;;20.30;35.70;;;;;;482512;246;2305;-44
2022/01/11 00:14:03;;;;;;;;;;;20.30;35.70;;;;;;482617;246;2130;-44
2022/01/11 00:16:04;;;;;;;;;;;20.30;35.80;;;;;;482688;246;1566;-44
2022/01/11 00:18:05;;;;;;;;;;;20.30;35.70;;;;;;482660;246;1078;-44
2022/01/11 00:20:07;;;;;;;;;;;20.20;35.70;;;;;;482544;246;973;-44
2022/01/11 00:22:16;;;;;;;;;;;20.30;35.80;;;;;;482549;246;1207;-45
2022/01/11 00:24:29;;;;;;;;;;;20.20;35.80;;;;;;482147;247;1383;-45
2022/01/11 00:26:29;;;;;;;;;;;20.30;35.80;;;;;;482522;243;2098;-44
2022/01/11 00:28:31;;;;;;;;;;;20.20;35.70;;;;;;482219;246;1180;-44
2022/01/11 00:30:34;;;;;;;;;;;20.30;35.80;;;;;;482670;246;1220;-44
2022/01/11 00:32:41;;;;;;;;;;;20.20;35.80;;;;;;482337;247;2229;-44
2022/01/11 00:34:47;;;;;;;;;;;20.20;35.80;;;;;;482126;247;2264;-44
2022/01/11 00:36:42;;;;;;;;;;;20.20;35.80;;;;;;481758;247;2338;-44
2022/01/11 00:38:42;;;;;;;;;;;20.20;35.80;;;;;;482201;246;2245;-44
2022/01/11 00:40:43;;;;;;;;;;;20.20;35.80;;;;;;482709;246;1047;-44
2022/01/11 00:42:45;;;;;;;;;;;20.20;35.80;;;;;;482345;246;1301;-44
2022/01/11 00:44:46;;;;;;;;;;;20.30;35.70;;;;;;482223;246;1096;-45
2022/01/11 00:46:47;;;;;;;;;;;20.50;35.40;;;;;;482515;246;1219;-44
2022/01/11 00:48:49;;;;;;;;;;;20.60;35.10;;;;;;482703;246;1053;-45
2022/01/11 00:50:50;;;;;;;;;;;20.80;34.80;;;;;;482679;246;1063;-45
2022/01/11 00:52:51;;;;;;;;;;;20.90;34.50;;;;;;482453;246;1137;-44
2022/01/11 00:54:53;;;;;;;;;;;21.00;34.40;;;;;;482219;246;2161;-44
2022/01/11 00:56:54;;;;;;;;;;;21.10;34.30;;;;;;482170;246;1065;-44
2022/01/11 00:58:55;;;;;;;;;;;21.10;34.20;;;;;;482338;246;1216;-44
2022/01/11 01:00:57;;;;;;;;;;;21.20;34.00;;;;;;482599;246;1175;-45
2022/01/11 01:02:58;;;;;;;;;;;21.30;34.00;;;;;;482187;246;1056;-45
2022/01/11 01:04:59;;;;;;;;;;;21.30;33.90;;;;;;482386;246;1224;-45
2022/01/11 01:07:00;;;;;;;;;;;21.40;33.80;;;;;;482325;246;1060;-44
2022/01/11 01:09:02;;;;;;;;;;;21.40;33.70;;;;;;482206;246;1067;-45
2022/01/11 01:11:03;;;;;;;;;;;21.50;33.60;;;;;;482186;246;1308;-44
2022/01/11 01:13:04;;;;;;;;;;;21.50;33.50;;;;;;482514;246;1239;-44
2022/01/11 01:15:06;;;;;;;;;;;21.60;33.50;;;;;;482712;246;2118;-45
2022/01/11 01:17:07;;;;;;;;;;;21.60;33.50;;;;;;482578;246;1378;-45
2022/01/11 01:19:08;;;;;;;;;;;21.60;33.40;;;;;;482711;246;1060;-45
2022/01/11 01:21:10;;;;;;;;;;;21.70;33.40;;;;;;482655;246;1342;-45
2022/01/11 01:23:11;;;;;;;;;;;21.60;33.30;;;;;;482633;246;1270;-45
2022/01/11 01:25:12;;;;;;;;;;;21.70;33.30;;;;;;482623;246;1088;-45
2022/01/11 01:27:14;;;;;;;;;;;21.70;33.30;;;;;;482460;246;1311;-44
2022/01/11 01:29:15;;;;;;;;;;;21.70;33.30;;;;;;482246;246;1153;-45
2022/01/11 01:31:16;;;;;;;;;;;21.80;33.30;;;;;;482473;246;1208;-44
2022/01/11 01:33:17;;;;;;;;;;;21.80;33.20;;;;;;482212;246;1132;-45
2022/01/11 01:35:19;;;;;;;;;;;21.80;33.20;;;;;;482248;246;2188;-45
2022/01/11 01:37:20;;;;;;;;;;;21.80;33.20;;;;;;482169;246;2276;-45
2022/01/11 01:39:21;;;;;;;;;;;21.90;33.10;;;;;;482700;246;1120;-45
2022/01/11 01:41:23;;;;;;;;;;;21.90;33.10;;;;;;482480;246;1108;-45
2022/01/11 01:43:24;;;;;;;;;;;21.90;33.10;;;;;;482588;246;1209;-45
2022/01/11 01:45:25;;;;;;;;;;;21.90;33.00;;;;;;482713;246;1065;-45
2022/01/11 01:47:27;;;;;;;;;;;21.90;33.00;;;;;;482627;246;1225;-45
2022/01/11 01:49:29;;;;;;;;;;;22.00;33.00;;;;;;482262;246;1052;-45
2022/01/11 01:51:29;;;;;;;;;;;22.00;33.00;;;;;;482472;246;2409;-45
2022/01/11 01:53:31;;;;;;;;;;;22.00;33.00;;;;;;482616;246;1054;-45
2022/01/11 01:55:32;;;;;;;;;;;22.00;33.00;;;;;;482657;246;2118;-45
2022/01/11 01:57:33;;;;;;;;;;;22.00;32.90;;;;;;482620;246;1316;-44
2022/01/11 01:59:35;;;;;;;;;;;22.10;32.90;;;;;;482373;246;1241;-45
2022/01/11 02:01:43;;;;;;;;;;;22.10;32.90;;;;;;482626;246;1304;-45
2022/01/11 02:03:39;;;;;;;;;;;22.00;32.90;;;;;;481742;247;2309;-45
2022/01/11 02:05:39;;;;;;;;;;;22.10;32.90;;;;;;482150;247;1969;-45
2022/01/11 02:07:40;;;;;;;;;;;22.10;32.90;;;;;;482212;246;1161;-45
2022/01/11 02:09:41;;;;;;;;;;;22.10;32.90;;;;;;482690;246;1103;-45
2022/01/11 02:11:43;;;;;;;;;;;22.10;32.90;;;;;;482648;246;1565;-45
2022/01/11 02:13:44;;;;;;;;;;;22.00;32.90;;;;;;482251;246;1324;-45
2022/01/11 02:15:45;;;;;;;;;;;22.10;32.90;;;;;;482686;246;2197;-45
2022/01/11 02:17:46;;;;;;;;;;;22.10;32.80;;;;;;482441;246;1183;-45
2022/01/11 02:19:48;;;;;;;;;;;22.10;32.80;;;;;;482253;246;1237;-45
2022/01/11 02:21:49;;;;;;;;;;;22.10;32.80;;;;;;482651;246;1314;-45
2022/01/11 02:23:50;;;;;;;;;;;22.20;32.80;;;;;;482244;246;1066;-45
2022/01/11 02:25:52;;;;;;;;;;;22.20;32.80;;;;;;482636;246;1348;-44
2022/01/11 02:27:53;;;;;;;;;;;22.20;32.80;;;;;;482703;246;1177;-45
2022/01/11 02:29:55;;;;;;;;;;;22.20;32.80;;;;;;482436;246;1207;-45
2022/01/11 02:31:56;;;;;;;;;;;22.20;32.70;;;;;;482239;246;2207;-45
2022/01/11 02:33:58;;;;;;;;;;;22.20;32.80;;;;;;482707;246;1216;-45
2022/01/11 02:35:59;;;;;;;;;;;22.20;32.70;;;;;;482666;246;2129;-44
2022/01/11 02:38:00;;;;;;;;;;;22.20;32.80;;;;;;482654;246;1080;-44
2022/01/11 02:40:01;;;;;;;;;;;22.20;32.70;;;;;;482728;246;1047;-45
2022/01/11 02:42:02;;;;;;;;;;;22.20;32.70;;;;;;482413;246;1296;-45
2022/01/11 02:44:04;;;;;;;;;;;22.30;32.70;;;;;;482507;246;1290;-45
2022/01/11 02:46:05;;;;;;;;;;;22.30;32.70;;;;;;482250;246;1280;-45
2022/01/11 02:48:06;;;;;;;;;;;22.30;32.70;;;;;;482313;246;1086;-45
2022/01/11 02:50:08;;;;;;;;;;;22.30;32.70;;;;;;482461;246;951;-45
2022/01/11 02:52:09;;;;;;;;;;;22.30;32.70;;;;;;482660;246;1185;-45
2022/01/11 02:54:10;;;;;;;;;;;22.30;32.70;;;;;;482348;246;1000;-45
2022/01/11 02:56:12;;;;;;;;;;;22.30;32.70;;;;;;482260;246;2117;-45
2022/01/11 02:58:13;;;;;;;;;;;22.30;32.60;;;;;;482728;246;1109;-45
2022/01/11 03:00:14;;;;;;;;;;;22.30;32.60;;;;;;482307;246;1220;-45
2022/01/11 03:02:16;;;;;;;;;;;22.30;32.70;;;;;;482697;246;1247;-45
2022/01/11 03:04:17;;;;;;;;;;;22.30;32.70;;;;;;482261;246;1009;-44
2022/01/11 03:06:18;;;;;;;;;;;22.30;32.70;;;;;;482615;246;1177;-45
2022/01/11 03:08:20;;;;;;;;;;;22.30;32.70;;;;;;482295;246;1030;-45
2022/01/11 03:10:28;;;;;;;;;;;22.40;32.70;;;;;;482304;246;1227;-44
2022/01/11 03:12:23;;;;;;;;;;;22.30;32.70;;;;;;482075;247;1975;-45
2022/01/11 03:14:24;;;;;;;;;;;22.40;32.70;;;;;;482381;246;1146;-45
2022/01/11 03:16:25;;;;;;;;;;;22.40;32.70;;;;;;482417;246;2113;-45
2022/01/11 03:18:27;;;;;;;;;;;22.40;32.70;;;;;;482234;246;1224;-45
2022/01/11 03:20:28;;;;;;;;;;;22.40;32.70;;;;;;482468;246;1216;-45
2022/01/11 03:22:29;;;;;;;;;;;22.40;32.70;;;;;;482290;246;1377;-45
2022/01/11 03:24:31;;;;;;;;;;;22.40;32.70;;;;;;482728;246;1268;-45
2022/01/11 03:26:32;;;;;;;;;;;22.40;32.70;;;;;;482273;246;1417;-45
2022/01/11 03:28:33;;;;;;;;;;;22.40;32.60;;;;;;482722;247;1233;-45
2022/01/11 03:30:34;;;;;;;;;;;22.40;32.60;;;;;;482321;246;1203;-45
2022/01/11 03:32:36;;;;;;;;;;;22.40;32.60;;;;;;482221;246;1090;-45
2022/01/11 03:34:37;;;;;;;;;;;22.40;32.60;;;;;;482725;246;1091;-45
2022/01/11 03:36:38;;;;;;;;;;;22.40;32.60;;;;;;482688;243;2114;-45
2022/01/11 03:38:40;;;;;;;;;;;22.40;32.60;;;;;;482423;246;1093;-45
2022/01/11 03:40:41;;;;;;;;;;;22.50;32.60;;;;;;482288;246;1192;-45
2022/01/11 03:42:42;;;;;;;;;;;22.50;32.60;;;;;;482246;246;1279;-45
2022/01/11 03:44:44;;;;;;;;;;;22.50;32.60;;;;;;482605;246;1100;-45
2022/01/11 03:46:45;;;;;;;;;;;22.50;32.60;;;;;;482477;246;1039;-45
2022/01/11 03:48:46;;;;;;;;;;;22.50;32.60;;;;;;482351;246;1051;-45
2022/01/11 03:50:52;;;;;;;;;;;22.50;32.60;;;;;;482730;246;1048;-45
2022/01/11 03:52:58;;;;;;;;;;;22.50;32.60;;;;;;482512;247;1371;-45
2022/01/11 03:55:04;;;;;;;;;;;22.50;32.60;;;;;;481859;247;2381;-45
2022/01/11 03:57:03;;;;;;;;;;;22.50;32.60;;;;;;482117;247;2329;-45
2022/01/11 03:59:06;;;;;;;;;;;22.50;32.60;;;;;;482747;246;1049;-45
2022/01/11 04:01:05;;;;;;;;;;;22.50;32.60;;;;;;482205;246;1375;-45
2022/01/11 04:03:06;;;;;;;;;;;22.50;32.60;;;;;;482429;246;1219;-45
2022/01/11 04:05:08;;;;;;;;;;;22.50;32.60;;;;;;482258;246;986;-45
2022/01/11 04:07:09;;;;;;;;;;;22.50;32.60;;;;;;482210;246;1120;-44
2022/01/11 04:09:11;;;;;;;;;;;22.50;32.60;;;;;;482223;246;1597;-45
2022/01/11 04:11:12;;;;;;;;;;;22.50;32.60;;;;;;482207;246;1430;-45
2022/01/11 04:13:13;;;;;;;;;;;22.50;32.60;;;;;;482252;246;1043;-44
2022/01/11 04:15:14;;;;;;;;;;;22.50;32.60;;;;;;482532;246;2177;-44
2022/01/11 04:17:16;;;;;;;;;;;22.50;32.50;;;;;;482590;246;1188;-44
2022/01/11 04:19:17;;;;;;;;;;;22.50;32.60;;;;;;482285;246;1101;-45
2022/01/11 04:21:18;;;;;;;;;;;22.50;32.60;;;;;;482691;243;1257;-45
2022/01/11 04:23:20;;;;;;;;;;;22.50;32.50;;;;;;482217;246;1337;-45
2022/01/11 04:25:21;;;;;;;;;;;22.60;32.60;;;;;;482401;246;1117;-44
2022/01/11 04:27:22;;;;;;;;;;;22.60;32.60;;;;;;482296;246;1228;-44
2022/01/11 04:29:24;;;;;;;;;;;22.60;32.60;;;;;;482703;246;1012;-45
2022/01/11 04:31:25;;;;;;;;;;;22.50;32.70;;;;;;482312;246;1371;-45
2022/01/11 04:33:26;;;;;;;;;;;22.40;32.80;;;;;;482609;246;1284;-44
2022/01/11 04:35:27;;;;;;;;;;;22.20;33.00;;;;;;482569;246;2110;-45
2022/01/11 04:37:29;;;;;;;;;;;22.10;33.40;;;;;;482300;246;1165;-45
2022/01/11 04:39:30;;;;;;;;;;;21.90;33.70;;;;;;482261;246;1013;-45
2022/01/11 04:41:31;;;;;;;;;;;21.70;34.00;;;;;;482597;246;1349;-45
2022/01/11 04:43:33;;;;;;;;;;;21.60;34.10;;;;;;482726;246;1079;-45
2022/01/11 04:45:34;;;;;;;;;;;21.50;34.30;;;;;;482564;246;1112;-45
2022/01/11 04:47:35;;;;;;;;;;;21.50;34.40;;;;;;482259;246;1254;-45
2022/01/11 04:49:37;;;;;;;;;;;21.40;34.50;;;;;;482670;246;1088;-45
2022/01/11 04:51:38;;;;;;;;;;;21.40;34.60;;;;;;482670;246;1447;-45
2022/01/11 04:53:40;;;;;;;;;;;21.30;34.70;;;;;;482224;246;1110;-44
2022/01/11 04:55:41;;;;;;;;;;;21.20;34.80;;;;;;482695;246;2110;-44
2022/01/11 04:57:42;;;;;;;;;;;21.20;34.80;;;;;;482348;246;1172;-44
2022/01/11 04:59:44;;;;;;;;;;;21.20;34.80;;;;;;482272;246;1075;-44
2022/01/11 05:01:45;;;;;;;;;;;21.20;34.90;;;;;;482248;246;1551;-44
2022/01/11 05:03:46;;;;;;;;;;;21.10;35.00;;;;;;482664;246;1084;-45
2022/01/11 05:05:48;;;;;;;;;;;21.10;35.10;;;;;;482273;246;1464;-44
2022/01/11 05:07:49;;;;;;;;;;;21.10;35.10;;;;;;482577;246;1200;-44
2022/01/11 05:09:51;;;;;;;;;;;21.10;35.20;;;;;;482325;246;1262;-45
2022/01/11 05:11:52;;;;;;;;;;;21.00;35.20;;;;;;482059;246;2311;-44
2022/01/11 05:13:53;;;;;;;;;;;21.00;35.20;;;;;;482496;246;1075;-45
2022/01/11 05:15:55;;;;;;;;;;;21.00;35.30;;;;;;482208;246;2149;-44
2022/01/11 05:17:56;;;;;;;;;;;21.00;35.30;;;;;;482248;246;1104;-44
2022/01/11 05:19:57;;;;;;;;;;;21.00;35.30;;;;;;482433;246;1110;-44
2022/01/11 05:21:59;;;;;;;;;;;20.90;35.30;;;;;;482219;246;1268;-44
2022/01/11 05:24:00;;;;;;;;;;;20.90;35.40;;;;;;482582;246;1046;-44
2022/01/11 05:26:01;;;;;;;;;;;20.90;35.30;;;;;;482263;246;1275;-44
2022/01/11 05:28:02;;;;;;;;;;;20.90;35.30;;;;;;482107;246;1419;-44
2022/01/11 05:30:04;;;;;;;;;;;20.90;35.40;;;;;;482589;246;1015;-44
2022/01/11 05:32:05;;;;;;;;;;;20.80;35.40;;;;;;482060;246;1156;-44
2022/01/11 05:34:06;;;;;;;;;;;20.90;35.40;;;;;;482085;246;1167;-44
2022/01/11 05:36:08;;;;;;;;;;;20.80;35.40;;;;;;482323;246;2125;-44
2022/01/11 05:38:09;;;;;;;;;;;20.80;35.50;;;;;;482085;246;1089;-45
2022/01/11 05:40:10;;;;;;;;;;;20.80;35.50;;;;;;482507;246;1242;-44
2022/01/11 05:42:12;;;;;;;;;;;20.80;35.50;;;;;;482180;246;1198;-45
2022/01/11 05:44:13;;;;;;;;;;;20.80;35.50;;;;;;482052;246;1230;-45
2022/01/11 05:46:14;;;;;;;;;;;20.80;35.60;;;;;;482037;246;1222;-44
2022/01/11 05:48:16;;;;;;;;;;;20.70;35.60;;;;;;482060;246;1254;-44
2022/01/11 05:50:17;;;;;;;;;;;20.80;35.70;;;;;;482510;246;1129;-44
2022/01/11 05:52:18;;;;;;;;;;;20.70;35.70;;;;;;482162;246;2074;-44
2022/01/11 05:54:19;;;;;;;;;;;20.70;35.70;;;;;;482073;246;1202;-44
2022/01/11 05:56:21;;;;;;;;;;;20.70;35.60;;;;;;482336;246;2209;-44
2022/01/11 05:58:22;;;;;;;;;;;20.70;35.60;;;;;;482321;246;1128;-44
2022/01/11 06:00:23;;;;;;;;;;;20.70;35.70;;;;;;482415;246;1096;-44
2022/01/11 06:02:25;;;;;;;;;;;20.70;35.60;;;;;;481952;246;1254;-44
2022/01/11 06:04:26;;;;;;;;;;;20.70;35.70;;;;;;482493;246;1277;-44
2022/01/11 06:06:27;;;;;;;;;;;20.70;35.70;;;;;;482325;243;1224;-44
2022/01/11 06:08:29;;;;;;;;;;;20.70;35.70;;;;;;481981;246;1294;-44
2022/01/11 06:10:30;;;;;;;;;;;20.60;35.60;;;;;;482288;246;1696;-44
2022/01/11 06:12:31;;;;;;;;;;;20.60;35.60;;;;;;482047;246;1259;-44
2022/01/11 06:14:33;;;;;;;;;;;20.60;35.60;;;;;;482053;246;1232;-44
2022/01/11 06:16:34;;;;;;;;;;;20.60;35.60;;;;;;481989;246;2189;-44
2022/01/11 06:18:35;;;;;;;;;;;20.60;35.70;;;;;;482099;246;1085;-44
2022/01/11 06:20:37;;;;;;;;;;;20.60;35.80;;;;;;482232;246;1105;-44
2022/01/11 06:22:38;;;;;;;;;;;20.60;35.70;;;;;;481878;246;1232;-45
2022/01/11 06:24:39;;;;;;;;;;;20.60;35.70;;;;;;482021;246;1178;-44
2022/01/11 06:26:41;;;;;;;;;;;20.60;35.80;;;;;;481952;243;1306;-44
2022/01/11 06:28:42;;;;;;;;;;;20.60;35.80;;;;;;482464;246;1062;-44
2022/01/11 06:30:44;;;;;;;;;;;20.60;35.70;;;;;;481971;246;1071;-44
2022/01/11 06:32:45;;;;;;;;;;;20.50;35.70;;;;;;481904;246;1184;-44
2022/01/11 06:34:46;;;;;;;;;;;20.50;35.80;;;;;;482120;246;1158;-44
2022/01/11 06:36:48;;;;;;;;;;;20.60;35.80;;;;;;481803;244;2118;-44
2022/01/11 06:38:49;;;;;;;;;;;20.50;35.70;;;;;;481944;246;1096;-45
2022/01/11 06:40:50;;;;;;;;;;;20.50;35.70;;;;;;481902;246;1328;-44
2022/01/11 06:42:52;;;;;;;;;;;20.60;35.70;;;;;;482013;246;1635;-44
2022/01/11 06:44:53;;;;;;;;;;;20.50;35.70;;;;;;481873;246;2396;-44
2022/01/11 06:46:54;;;;;;;;;;;20.60;35.80;;;;;;481960;246;1545;-44
2022/01/11 06:48:57;;;;;;;;;;;20.50;35.80;;;;;;481924;246;1082;-44
2022/01/11 06:50:58;;;;;;;;;;;20.50;35.80;;;;;;481880;246;1139;-44
2022/01/11 06:52:59;;;;;;;;;;;20.50;35.90;;;;;;481757;246;1631;-44
2022/01/11 06:55:00;;;;;;;;;;;20.50;35.90;;;;;;482211;246;1108;-44
2022/01/11 06:57:02;;;;;;;;;;;20.50;35.80;;;;;;481805;246;2200;-44
2022/01/11 06:59:03;;;;;;;;;;;20.50;35.80;;;;;;482046;246;1257;-44
2022/01/11 07:01:04;;;;;;;;;;;20.50;35.80;;;;;;481878;246;1440;-45
2022/01/11 07:03:06;;;;;;;;;;;20.50;35.90;;;;;;481863;246;1429;-45
2022/01/11 07:05:07;;;;;;;;;;;20.50;35.90;;;;;;482080;246;1128;-44
2022/01/11 07:07:08;;;;;;;;;;;20.50;35.90;;;;;;481850;246;1254;-44
2022/01/11 07:09:10;;;;;;;;;;;20.50;35.90;;;;;;481871;246;1087;-45
2022/01/11 07:11:11;;;;;;;;;;;20.50;35.90;;;;;;481949;246;1369;-44
2022/01/11 07:13:12;;;;;;;;;;;20.50;35.90;;;;;;481804;246;1116;-44
2022/01/11 07:15:14;;;;;;;;;;;20.50;35.90;;;;;;481859;246;1083;-44
2022/01/11 07:17:15;;;;;;;;;;;20.50;35.80;;;;;;481717;246;2193;-45
2022/01/11 07:19:16;;;;;;;;;;;20.50;35.80;;;;;;481927;246;1075;-44
2022/01/11 07:21:18;;;;;;;;;;;20.50;35.80;;;;;;481724;246;1192;-44
2022/01/11 07:23:19;;;;;;;;;;;20.50;35.80;;;;;;481725;246;1532;-44
2022/01/11 07:25:22;;;;;;;;;;;20.50;35.80;;;;;;481936;246;1257;-45
2022/01/11 07:27:22;;;;;;;;;;;20.50;35.80;;;;;;481651;243;2064;-44
2022/01/11 07:29:23;;;;;;;;;;;20.50;35.90;;;;;;481935;246;1076;-44
2022/01/11 07:31:25;;;;;;;;;;;20.50;35.80;;;;;;481720;246;1195;-44
2022/01/11 07:33:26;;;;;;;;;;;20.50;35.70;;;;;;481682;246;1174;-44
2022/01/11 07:35:27;;;;;;;;;;;20.40;35.80;;;;;;481617;246;1199;-44
2022/01/11 07:37:29;;;;;;;;;;;20.40;35.80;;;;;;481739;246;2245;-45
2022/01/11 07:39:30;;;;;;;;;;;20.40;35.80;;;;;;481762;246;1145;-44
2022/01/11 07:41:31;;;;;;;;;;;20.40;35.80;;;;;;481711;246;1292;-44
2022/01/11 07:43:32;;;;;;;;;;;20.40;35.80;;;;;;481873;246;1079;-44
2022/01/11 07:45:34;;;;;;;;;;;20.40;35.70;;;;;;481510;246;1177;-44
2022/01/11 07:47:35;;;;;;;;;;;20.40;35.70;;;;;;481453;246;1188;-44
2022/01/11 07:49:36;;;;;;;;;;;20.40;35.80;;;;;;481643;246;1553;-44
2022/01/11 07:51:38;;;;;;;;;;;20.40;35.70;;;;;;481725;246;1219;-44
2022/01/11 07:53:39;;;;;;;;;;;20.40;35.80;;;;;;481672;246;1269;-44
2022/01/11 07:55:41;;;;;;;;;;;20.50;35.70;;;;;;481685;246;1064;-44
2022/01/11 07:57:42;;;;;;;;;;;20.50;35.70;;;;;;481752;246;2184;-44
2022/01/11 07:59:43;;;;;;;;;;;20.40;35.70;;;;;;481572;246;1048;-45
2022/01/11 08:01:44;;;;;;;;;;;20.40;35.70;;;;;;481595;246;1164;-44
2022/01/11 08:03:46;;;;;;;;;;;20.40;35.70;;;;;;481697;246;1093;-44
2022/01/11 08:05:48;;;;;;;;;;;20.40;35.70;;;;;;481658;246;1355;-44
2022/01/11 08:07:49;;;;;;;;;;;20.40;35.70;;;;;;481722;246;1199;-44
2022/01/11 08:09:50;;;;;;;;;;;20.40;35.70;;;;;;481462;246;2265;-44
2022/01/11 08:11:54;;;;;;;;;;;20.40;35.80;;;;;;481646;246;1318;-44
2022/01/11 08:13:53;;;;;;;;;;;20.40;35.80;;;;;;481383;247;2098;-44
2022/01/11 08:15:54;;;;;;;;;;;20.40;35.70;;;;;;481575;246;1164;-44
2022/01/11 08:17:55;;;;;;;;;;;20.40;35.70;;;;;;481549;246;2117;-44
2022/01/11 08:19:57;;;;;;;;;;;20.40;35.70;;;;;;481532;246;1237;-44
2022/01/11 08:21:58;;;;;;;;;;;20.40;35.80;;;;;;480869;246;1523;-44
2022/01/11 08:23:59;;;;;;;;;;;20.40;35.70;;;;;;481473;247;1231;-44
2022/01/11 08:26:01;;;;;;;;;;;20.40;35.80;;;;;;481619;246;1174;-44
2022/01/11 08:28:02;;;;;;;;;;;20.40;35.80;;;;;;481577;246;1233;-44
2022/01/11 08:30:03;;;;;;;;;;;20.40;35.80;;;;;;481491;246;1085;-44
2022/01/11 08:32:05;;;;;;;;;;;20.40;35.70;;;;;;481338;246;1425;-44
2022/01/11 08:34:11;;;;;;;;;;;20.30;35.80;;;;;;481466;246;1223;-44
2022/01/11 08:36:08;;;;;;;;;;;20.40;35.80;;;;;;481346;247;2063;-44
2022/01/11 08:38:09;;;;;;;;;;;20.40;35.70;;;;;;481490;246;2189;-44
2022/01/11 08:40:12;;;;;;;;;;;20.40;35.80;;;;;;481494;246;1036;-44
2022/01/11 08:42:12;;;;;;;;;;;20.40;35.80;;;;;;481547;247;1914;-44
2022/01/11 08:44:14;;;;;;;;;;;20.40;35.70;;;;;;481635;246;1085;-44
2022/01/11 08:46:16;;;;;;;;;;;20.40;35.70;;;;;;481659;246;1320;-44
2022/01/11 08:48:17;;;;;;;;;;;20.40;35.80;;;;;;481558;246;2024;-44
2022/01/11 08:50:18;;;;;;;;;;;20.40;35.70;;;;;;481636;246;1210;-44
2022/01/11 08:52:19;;;;;;;;;;;20.30;35.70;;;;;;481510;246;1343;-45
2022/01/11 08:54:24;;;;;;;;;;;20.40;35.80;;;;;;481451;246;1096;-44
2022/01/11 08:56:22;;;;;;;;;;;20.30;35.80;;;;;;481167;247;2157;-44
2022/01/11 08:58:24;;;;;;;;;;;20.30;35.70;;;;;;482290;246;2200;-44
2022/01/11 09:00:26;;;;;;;;;;;20.30;35.80;;;;;;481804;246;1210;-44
2022/01/11 09:02:26;;;;;;;;;;;20.30;35.70;;;;;;481673;247;1844;-44
2022/01/11 09:04:28;;;;;;;;;;;20.30;35.70;;;;;;481545;246;1191;-44
2022/01/11 09:06:29;;;;;;;;;;;20.40;35.80;;;;;;481443;246;1269;-44
2022/01/11 09:08:31;;;;;;;;;;;20.30;35.70;;;;;;481668;246;1076;-44
2022/01/11 09:10:32;;;;;;;;;;;20.40;35.70;;;;;;481549;246;1244;-44
2022/01/11 09:12:33;;;;;;;;;;;20.40;35.70;;;;;;481649;246;1316;-44
2022/01/11 09:14:35;;;;;;;;;;;20.40;35.70;;;;;;481588;246;1143;-44
2022/01/11 09:16:36;;;;;;;;;;;20.40;35.70;;;;;;481396;246;1165;-44
2022/01/11 09:18:37;;;;;;;;;;;20.40;35.70;;;;;;481620;246;2185;-44
2022/01/11 09:20:39;;;;;;;;;;;20.40;35.70;;;;;;481476;246;1088;-44
2022/01/11 09:22:40;;;;;;;;;;;20.40;35.70;;;;;;481408;246;1252;-44
2022/01/11 09:24:41;;;;;;;;;;;20.40;35.70;;;;;;481583;246;1429;-44
2022/01/11 09:26:43;;;;;;;;;;;20.30;35.70;;;;;;481456;246;1507;-44
2022/01/11 09:28:44;;;;;;;;;;;20.30;35.70;;;;;;481533;246;1150;-44
2022/01/11 09:30:45;;;;;;;;;;;20.30;35.80;;;;;;481545;246;1384;-44
2022/01/11 09:32:47;;;;;;;;;;;20.40;35.70;;;;;;481371;246;1259;-43
2022/01/11 09:34:48;;;;;;;;;;;20.40;35.80;;;;;;481533;246;1115;-44
2022/01/11 09:36:50;;;;;;;;;;;20.30;35.70;;;;;;481463;246;1298;-44
2022/01/11 09:38:51;;;;;;;;;;;20.40;35.80;;;;;;481588;246;2146;-43
2022/01/11 09:40:52;;;;;;;;;;;20.30;35.70;;;;;;481450;246;1366;-44
2022/01/11 09:42:54;;;;;;;;;;;20.30;35.80;;;;;;481624;246;1045;-44
2022/01/11 09:44:55;;;;;;;;;;;20.30;35.80;;;;;;481481;246;1148;-44
2022/01/11 09:46:56;;;;;;;;;;;20.30;35.80;;;;;;481533;246;1233;-44
2022/01/11 09:48:58;;;;;;;;;;;20.30;35.70;;;;;;482033;246;1106;-44
2022/01/11 09:50:59;;;;;;;;;;;20.40;35.80;;;;;;481422;246;1227;-44
2022/01/11 09:53:01;;;;;;;;;;;20.40;35.80;;;;;;481529;246;1055;-44
2022/01/11 09:55:02;;;;;;;;;;;20.30;35.70;;;;;;481461;246;1334;-44
2022/01/11 09:57:04;;;;;;;;;;;20.40;35.70;;;;;;481838;246;1584;-44
2022/01/11 09:59:05;;;;;;;;;;;20.30;35.80;;;;;;481477;246;2190;-44
2022/01/11 10:01:07;;;;;;;;;;;20.30;35.70;;;;;;481653;246;1344;-43
2022/01/11 10:03:08;;;;;;;;;;;20.30;35.80;;;;;;481474;246;1150;-44
2022/01/11 10:05:09;;;;;;;;;;;20.30;35.80;;;;;;481627;246;1509;-44
2022/01/11 10:07:11;;;;;;;;;;;20.30;35.80;;;;;;481429;246;1518;-44
2022/01/11 10:09:12;;;;;;;;;;;20.30;35.70;;;;;;481641;246;1040;-44
2022/01/11 10:11:13;;;;;;;;;;;20.30;35.80;;;;;;481758;246;1093;-44
2022/01/11 10:13:15;;;;;;;;;;;20.30;35.80;;;;;;481547;246;1293;-44
2022/01/11 10:15:16;;;;;;;;;;;20.30;35.80;;;;;;481540;246;1078;-44
2022/01/11 10:17:18;;;;;;;;;;;20.30;35.80;;;;;;481459;246;2228;-44
2022/01/11 10:19:19;;;;;;;;;;;20.30;35.70;;;;;;481471;247;2212;-44
2022/01/11 10:21:20;;;;;;;;;;;20.30;35.80;;;;;;481457;244;1432;-44
2022/01/11 10:23:21;;;;;;;;;;;20.30;35.80;;;;;;481511;246;1181;-44
2022/01/11 10:25:23;;;;;;;;;;;20.30;35.80;;;;;;481422;246;1056;-44
2022/01/11 10:27:25;;;;;;;;;;;20.30;35.80;;;;;;481355;246;1259;-44
2022/01/11 10:29:25;;;;;;;;;;;20.30;35.70;;;;;;481487;246;1064;-44
2022/01/11 10:31:27;;;;;;;;;;;20.30;35.70;;;;;;481460;246;1365;-44
2022/01/11 10:33:28;;;;;;;;;;;20.20;35.80;;;;;;481068;246;1211;-44
2022/01/11 10:35:29;;;;;;;;;;;20.30;35.80;;;;;;481145;246;1080;-44
2022/01/11 10:37:31;;;;;;;;;;;20.30;35.80;;;;;;481531;246;2138;-44
2022/01/11 10:39:32;;;;;;;;;;;20.30;35.80;;;;;;481672;246;1438;-44
2022/01/11 10:41:33;;;;;;;;;;;20.30;35.70;;;;;;481499;246;1331;-44
2022/01/11 10:43:35;;;;;;;;;;;20.30;35.60;;;;;;481608;246;1042;-44
2022/01/11 10:45:36;;;;;;;;;;;20.20;35.70;;;;;;481552;246;1239;-44
2022/01/11 10:47:37;;;;;;;;;;;20.30;35.70;;;;;;481648;246;1101;-44
2022/01/11 10:49:39;;;;;;;;;;;20.30;35.70;;;;;;481498;246;1196;-44
2022/01/11 10:51:40;;;;;;;;;;;20.30;35.70;;;;;;481418;243;1528;-44
2022/01/11 10:53:48;;;;;;;;;;;20.30;35.60;;;;;;481476;246;1325;-44
2022/01/11 10:55:43;;;;;;;;;;;20.30;35.60;;;;;;481210;247;1794;-44
2022/01/11 10:57:44;;;;;;;;;;;20.30;35.70;;;;;;481514;246;2192;-44
2022/01/11 10:59:46;;;;;;;;;;;20.30;35.70;;;;;;481669;246;1090;-44
2022/01/11 11:01:48;;;;;;;;;;;20.30;35.70;;;;;;481619;246;1129;-44
2022/01/11 11:03:48;;;;;;;;;;;20.30;35.70;;;;;;481433;246;2138;-44
2022/01/11 11:05:50;;;;;;;;;;;20.30;35.70;;;;;;481378;246;1254;-44
2022/01/11 11:07:51;;;;;;;;;;;20.20;35.70;;;;;;481450;246;1206;-44
2022/01/11 11:09:52;;;;;;;;;;;20.30;35.70;;;;;;481636;246;1232;-44
2022/01/11 11:11:54;;;;;;;;;;;20.30;35.70;;;;;;481576;246;1256;-44
2022/01/11 11:13:55;;;;;;;;;;;20.20;35.60;;;;;;481559;246;1083;-44
2022/01/11 11:15:56;;;;;;;;;;;20.20;35.60;;;;;;481483;246;1207;-44
2022/01/11 11:17:58;;;;;;;;;;;20.20;35.70;;;;;;481528;246;2193;-43
2022/01/11 11:20:00;;;;;;;;;;;20.20;35.60;;;;;;481436;246;1229;-44
2022/01/11 11:22:01;;;;;;;;;;;20.20;35.70;;;;;;481638;246;1230;-44
2022/01/11 11:24:03;;;;;;;;;;;20.20;35.60;;;;;;482271;246;1039;-44
2022/01/11 11:26:04;;;;;;;;;;;20.20;35.60;;;;;;481813;246;1102;-44
2022/01/11 11:28:05;;;;;;;;;;;20.30;35.60;;;;;;481827;246;1062;-44
2022/01/11 11:30:07;;;;;;;;;;;20.30;35.60;;;;;;481874;246;1173;-44
2022/01/11 11:32:08;;;;;;;;;;;20.20;35.60;;;;;;481939;246;1320;-44
2022/01/11 11:34:09;;;;;;;;;;;20.20;35.60;;;;;;481887;246;1156;-44
2022/01/11 11:36:11;;;;;;;;;;;20.20;35.60;;;;;;481466;246;1259;-44
2022/01/11 11:38:12;;;;;;;;;;;20.20;35.60;;;;;;481382;246;2134;-44
2022/01/11 11:40:14;;;;;;;;;;;20.20;35.60;;;;;;481360;246;1243;-44
2022/01/11 11:42:15;;;;;;;;;;;20.20;35.60;;;;;;481504;246;1179;-44
2022/01/11 11:44:16;;;;;;;;;;;20.20;35.70;;;;;;481382;246;1203;-44
2022/01/11 11:46:20;;;;;;;;;;;20.20;35.60;;;;;;481386;246;1190;-43
2022/01/11 11:48:19;;;;;;;;;;;20.20;35.70;;;;;;481766;247;2192;-44
2022/01/11 11:50:21;;;;;;;;;;;20.20;35.60;;;;;;481485;246;1319;-44
2022/01/11 11:52:22;;;;;;;;;;;20.20;35.60;;;;;;481613;246;2075;-44
2022/01/11 11:54:23;;;;;;;;;;;20.10;35.60;;;;;;481598;246;1075;-44
2022/01/11 11:56:25;;;;;;;;;;;20.20;35.70;;;;;;481585;246;1334;-44
2022/01/11 11:58:28;;;;;;;;;;;20.20;35.60;;;;;;481452;247;2269;-44